sensor_id;sensor_type;location;lat;lon;timestamp;P1;durP1;ratioP1;P2;durP2;ratioP2
41229;SDS011;26964;50.428;19.218;2024-03-06T00:00:07;111.2;;;41.9;;
41229;SDS011;26964;50.428;19.218;2024-03-06T00:01:08;123.0;;;44.3;;
41229;SDS011;26964;50.428;19.218;2024-03-06T00:02:07;136.0;;;46.8;;
41229;SDS011;26964;50.428;19.218;2024-03-06T00:03:07;118.0;;;44.6;;
41229;SDS011;26964;50.428;19.218;2024-03-06T00:04:07;103.4;;;43.4;;
41229;SDS011;26964;50.428;19.218;2024-03-06T00:05:07;114.1;;;43.4;;
41229;SDS011;26964;50.428;19.218;2024-03-06T00:06:07;110.8;;;43.8;;
41229;SDS011;26964;50.428;19.218;2024-03-06T00:07:07;109.3;;;43.2;;
41229;SDS011;26964;50.428;19.218;2024-03-06T00:08:06;109.5;;;43.4;;
41229;SDS011;26964;50.428;19.218;2024-03-06T00:09:07;98.3;;;42.1;;
41229;SDS011;26964;50.428;19.218;2024-03-06T00:10:06;103.5;;;43.6;;
41229;SDS011;26964;50.428;19.218;2024-03-06T00:11:06;99.1;;;42.9;;
41229;SDS011;26964;50.428;19.218;2024-03-06T00:12:06;97.2;;;43.2;;
41229;SDS011;26964;50.428;19.218;2024-03-06T00:13:06;94.8;;;40.5;;
41229;SDS011;26964;50.428;19.218;2024-03-06T00:14:06;96.4;;;43.1;;
41229;SDS011;26964;50.428;19.218;2024-03-06T00:15:08;98.3;;;43.3;;
41229;SDS011;26964;50.428;19.218;2024-03-06T00:16:06;96.0;;;41.9;;
41229;SDS011;26964;50.428;19.218;2024-03-06T00:17:06;96.4;;;42.3;;
41229;SDS011;26964;50.428;19.218;2024-03-06T00:18:06;95.0;;;42.1;;
41229;SDS011;26964;50.428;19.218;2024-03-06T00:19:06;97.0;;;41.4;;
41229;SDS011;26964;50.428;19.218;2024-03-06T00:20:07;97.1;;;40.4;;
41229;SDS011;26964;50.428;19.218;2024-03-06T00:21:06;95.0;;;39.1;;
41229;SDS011;26964;50.428;19.218;2024-03-06T00:22:06;93.6;;;39.2;;
41229;SDS011;26964;50.428;19.218;2024-03-06T00:23:06;83.5;;;39.6;;
41229;SDS011;26964;50.428;19.218;2024-03-06T00:24:06;95.9;;;39.8;;
41229;SDS011;26964;50.428;19.218;2024-03-06T00:25:06;94.5;;;41.1;;
41229;SDS011;26964;50.428;19.218;2024-03-06T00:26:06;88.3;;;39.2;;
41229;SDS011;26964;50.428;19.218;2024-03-06T00:27:06;85.3;;;39.5;;
41229;SDS011;26964;50.428;19.218;2024-03-06T00:28:06;83.3;;;38.7;;
41229;SDS011;26964;50.428;19.218;2024-03-06T00:29:06;81.7;;;38.9;;
41229;SDS011;26964;50.428;19.218;2024-03-06T00:30:07;88.0;;;38.8;;
41229;SDS011;26964;50.428;19.218;2024-03-06T00:31:06;120.0;;;38.7;;
41229;SDS011;26964;50.428;19.218;2024-03-06T00:32:07;120.0;;;39.8;;
41229;SDS011;26964;50.428;19.218;2024-03-06T00:33:06;113.9;;;40.3;;
41229;SDS011;26964;50.428;19.218;2024-03-06T00:34:08;86.6;;;38.5;;
41229;SDS011;26964;50.428;19.218;2024-03-06T00:35:06;102.9;;;39.4;;
41229;SDS011;26964;50.428;19.218;2024-03-06T00:36:07;87.3;;;38.8;;
41229;SDS011;26964;50.428;19.218;2024-03-06T00:37:07;100.1;;;38.6;;
41229;SDS011;26964;50.428;19.218;2024-03-06T00:38:06;114.1;;;38.9;;
41229;SDS011;26964;50.428;19.218;2024-03-06T00:39:07;94.4;;;38.0;;
41229;SDS011;26964;50.428;19.218;2024-03-06T00:40:07;113.8;;;40.1;;
41229;SDS011;26964;50.428;19.218;2024-03-06T00:41:07;116.5;;;39.2;;
41229;SDS011;26964;50.428;19.218;2024-03-06T00:42:06;111.4;;;39.6;;
41229;SDS011;26964;50.428;19.218;2024-03-06T00:43:07;98.4;;;40.4;;
41229;SDS011;26964;50.428;19.218;2024-03-06T00:44:06;87.7;;;39.3;;
41229;SDS011;26964;50.428;19.218;2024-03-06T00:45:07;90.4;;;39.3;;
41229;SDS011;26964;50.428;19.218;2024-03-06T00:46:06;74.8;;;39.6;;
41229;SDS011;26964;50.428;19.218;2024-03-06T00:47:06;78.2;;;40.3;;
41229;SDS011;26964;50.428;19.218;2024-03-06T00:48:06;86.5;;;40.2;;
41229;SDS011;26964;50.428;19.218;2024-03-06T00:49:06;89.8;;;40.0;;
41229;SDS011;26964;50.428;19.218;2024-03-06T00:50:06;94.2;;;39.1;;
41229;SDS011;26964;50.428;19.218;2024-03-06T00:51:07;94.4;;;40.2;;
41229;SDS011;26964;50.428;19.218;2024-03-06T00:52:07;116.7;;;40.2;;
41229;SDS011;26964;50.428;19.218;2024-03-06T00:53:06;100.2;;;39.0;;
41229;SDS011;26964;50.428;19.218;2024-03-06T00:54:07;93.8;;;39.2;;
41229;SDS011;26964;50.428;19.218;2024-03-06T00:55:07;105.4;;;38.8;;
41229;SDS011;26964;50.428;19.218;2024-03-06T00:56:07;102.8;;;38.7;;
41229;SDS011;26964;50.428;19.218;2024-03-06T00:57:06;106.7;;;40.5;;
41229;SDS011;26964;50.428;19.218;2024-03-06T00:58:07;96.4;;;39.9;;
41229;SDS011;26964;50.428;19.218;2024-03-06T00:59:08;104.9;;;39.5;;
41229;SDS011;26964;50.428;19.218;2024-03-06T01:00:07;107.8;;;38.1;;
41229;SDS011;26964;50.428;19.218;2024-03-06T01:01:07;95.6;;;38.5;;
41229;SDS011;26964;50.428;19.218;2024-03-06T01:02:07;103.0;;;38.7;;
41229;SDS011;26964;50.428;19.218;2024-03-06T01:03:07;124.9;;;41.3;;
41229;SDS011;26964;50.428;19.218;2024-03-06T01:04:06;109.8;;;38.4;;
41229;SDS011;26964;50.428;19.218;2024-03-06T01:05:07;93.1;;;37.9;;
41229;SDS011;26964;50.428;19.218;2024-03-06T01:06:07;110.3;;;37.2;;
41229;SDS011;26964;50.428;19.218;2024-03-06T01:07:07;103.5;;;37.8;;
41229;SDS011;26964;50.428;19.218;2024-03-06T01:08:06;103.1;;;38.4;;
41229;SDS011;26964;50.428;19.218;2024-03-06T01:09:07;98.9;;;35.8;;
41229;SDS011;26964;50.428;19.218;2024-03-06T01:10:06;109.1;;;38.0;;
41229;SDS011;26964;50.428;19.218;2024-03-06T01:11:07;109.1;;;36.8;;
41229;SDS011;26964;50.428;19.218;2024-03-06T01:12:07;109.5;;;38.3;;
41229;SDS011;26964;50.428;19.218;2024-03-06T01:13:08;108.8;;;37.4;;
41229;SDS011;26964;50.428;19.218;2024-03-06T01:14:07;95.5;;;36.4;;
41229;SDS011;26964;50.428;19.218;2024-03-06T01:16:06;121.0;;;34.9;;
41229;SDS011;26964;50.428;19.218;2024-03-06T01:17:06;90.1;;;33.0;;
41229;SDS011;26964;50.428;19.218;2024-03-06T01:18:06;71.6;;;35.3;;
41229;SDS011;26964;50.428;19.218;2024-03-06T01:19:06;85.7;;;33.7;;
41229;SDS011;26964;50.428;19.218;2024-03-06T01:20:07;85.4;;;35.0;;
41229;SDS011;26964;50.428;19.218;2024-03-06T01:21:06;81.8;;;35.4;;
41229;SDS011;26964;50.428;19.218;2024-03-06T01:22:06;89.4;;;36.2;;
41229;SDS011;26964;50.428;19.218;2024-03-06T01:23:06;85.6;;;32.6;;
41229;SDS011;26964;50.428;19.218;2024-03-06T01:24:06;95.6;;;34.3;;
41229;SDS011;26964;50.428;19.218;2024-03-06T01:25:07;85.2;;;33.1;;
41229;SDS011;26964;50.428;19.218;2024-03-06T01:26:06;100.3;;;32.6;;
41229;SDS011;26964;50.428;19.218;2024-03-06T01:27:06;89.5;;;33.0;;
41229;SDS011;26964;50.428;19.218;2024-03-06T01:28:06;87.5;;;30.6;;
41229;SDS011;26964;50.428;19.218;2024-03-06T01:29:06;94.0;;;31.7;;
41229;SDS011;26964;50.428;19.218;2024-03-06T01:30:07;61.9;;;30.3;;
41229;SDS011;26964;50.428;19.218;2024-03-06T01:31:06;83.4;;;32.9;;
41229;SDS011;26964;50.428;19.218;2024-03-06T01:32:06;65.9;;;29.9;;
41229;SDS011;26964;50.428;19.218;2024-03-06T01:33:07;86.1;;;31.9;;
41229;SDS011;26964;50.428;19.218;2024-03-06T01:34:07;110.3;;;30.5;;
41229;SDS011;26964;50.428;19.218;2024-03-06T01:35:06;103.6;;;30.6;;
41229;SDS011;26964;50.428;19.218;2024-03-06T01:36:06;87.0;;;29.9;;
41229;SDS011;26964;50.428;19.218;2024-03-06T01:37:06;54.5;;;29.7;;
41229;SDS011;26964;50.428;19.218;2024-03-06T01:38:06;78.7;;;31.0;;
41229;SDS011;26964;50.428;19.218;2024-03-06T01:39:06;74.4;;;32.2;;
41229;SDS011;26964;50.428;19.218;2024-03-06T01:40:06;80.2;;;32.1;;
41229;SDS011;26964;50.428;19.218;2024-03-06T01:41:06;85.9;;;29.7;;
41229;SDS011;26964;50.428;19.218;2024-03-06T01:42:06;65.5;;;29.3;;
41229;SDS011;26964;50.428;19.218;2024-03-06T01:43:10;82.1;;;29.7;;
41229;SDS011;26964;50.428;19.218;2024-03-06T01:44:06;60.9;;;30.6;;
41229;SDS011;26964;50.428;19.218;2024-03-06T01:45:11;78.9;;;33.0;;
41229;SDS011;26964;50.428;19.218;2024-03-06T01:46:07;94.9;;;30.9;;
41229;SDS011;26964;50.428;19.218;2024-03-06T01:47:06;107.5;;;31.8;;
41229;SDS011;26964;50.428;19.218;2024-03-06T01:48:06;95.1;;;30.6;;
41229;SDS011;26964;50.428;19.218;2024-03-06T01:49:07;87.8;;;31.3;;
41229;SDS011;26964;50.428;19.218;2024-03-06T01:50:07;115.2;;;33.1;;
41229;SDS011;26964;50.428;19.218;2024-03-06T01:51:06;110.7;;;30.4;;
41229;SDS011;26964;50.428;19.218;2024-03-06T01:52:07;78.2;;;30.2;;
41229;SDS011;26964;50.428;19.218;2024-03-06T01:53:07;122.2;;;31.3;;
41229;SDS011;26964;50.428;19.218;2024-03-06T01:54:07;125.5;;;30.4;;
41229;SDS011;26964;50.428;19.218;2024-03-06T01:55:06;142.1;;;29.6;;
41229;SDS011;26964;50.428;19.218;2024-03-06T01:56:06;96.7;;;28.9;;
41229;SDS011;26964;50.428;19.218;2024-03-06T01:57:07;59.0;;;25.4;;
41229;SDS011;26964;50.428;19.218;2024-03-06T01:58:07;111.0;;;25.5;;
41229;SDS011;26964;50.428;19.218;2024-03-06T01:59:07;143.7;;;27.6;;
41229;SDS011;26964;50.428;19.218;2024-03-06T02:00:07;106.2;;;26.7;;
41229;SDS011;26964;50.428;19.218;2024-03-06T02:01:06;89.4;;;25.6;;
41229;SDS011;26964;50.428;19.218;2024-03-06T02:02:06;87.2;;;25.6;;
41229;SDS011;26964;50.428;19.218;2024-03-06T02:03:07;83.4;;;27.0;;
41229;SDS011;26964;50.428;19.218;2024-03-06T02:04:07;121.3;;;27.7;;
41229;SDS011;26964;50.428;19.218;2024-03-06T02:05:07;107.8;;;28.1;;
41229;SDS011;26964;50.428;19.218;2024-03-06T02:06:07;116.3;;;27.6;;
41229;SDS011;26964;50.428;19.218;2024-03-06T02:07:08;111.0;;;26.6;;
41229;SDS011;26964;50.428;19.218;2024-03-06T02:08:07;101.5;;;25.1;;
41229;SDS011;26964;50.428;19.218;2024-03-06T02:09:06;53.0;;;23.4;;
41229;SDS011;26964;50.428;19.218;2024-03-06T02:10:07;80.1;;;24.7;;
41229;SDS011;26964;50.428;19.218;2024-03-06T02:11:08;101.6;;;24.4;;
41229;SDS011;26964;50.428;19.218;2024-03-06T02:12:07;71.1;;;24.4;;
41229;SDS011;26964;50.428;19.218;2024-03-06T02:13:06;107.7;;;25.3;;
41229;SDS011;26964;50.428;19.218;2024-03-06T02:14:06;85.6;;;24.6;;
41229;SDS011;26964;50.428;19.218;2024-03-06T02:15:06;71.4;;;23.7;;
41229;SDS011;26964;50.428;19.218;2024-03-06T02:16:06;68.1;;;24.9;;
41229;SDS011;26964;50.428;19.218;2024-03-06T02:17:08;91.8;;;25.8;;
41229;SDS011;26964;50.428;19.218;2024-03-06T02:18:07;103.0;;;26.3;;
41229;SDS011;26964;50.428;19.218;2024-03-06T02:19:07;110.3;;;27.2;;
41229;SDS011;26964;50.428;19.218;2024-03-06T02:20:07;84.3;;;25.0;;
41229;SDS011;26964;50.428;19.218;2024-03-06T02:21:07;115.6;;;26.2;;
41229;SDS011;26964;50.428;19.218;2024-03-06T02:22:06;104.1;;;26.4;;
41229;SDS011;26964;50.428;19.218;2024-03-06T02:23:07;93.2;;;25.8;;
41229;SDS011;26964;50.428;19.218;2024-03-06T02:24:07;117.1;;;24.5;;
41229;SDS011;26964;50.428;19.218;2024-03-06T02:25:07;135.4;;;27.2;;
41229;SDS011;26964;50.428;19.218;2024-03-06T02:26:07;100.1;;;23.7;;
41229;SDS011;26964;50.428;19.218;2024-03-06T02:27:07;106.5;;;25.3;;
41229;SDS011;26964;50.428;19.218;2024-03-06T02:28:07;129.8;;;24.8;;
41229;SDS011;26964;50.428;19.218;2024-03-06T02:29:07;117.2;;;24.2;;
41229;SDS011;26964;50.428;19.218;2024-03-06T02:30:07;117.1;;;25.5;;
41229;SDS011;26964;50.428;19.218;2024-03-06T02:31:07;125.5;;;24.7;;
41229;SDS011;26964;50.428;19.218;2024-03-06T02:32:07;123.5;;;23.5;;
41229;SDS011;26964;50.428;19.218;2024-03-06T02:33:07;128.1;;;24.0;;
41229;SDS011;26964;50.428;19.218;2024-03-06T02:34:07;123.6;;;25.4;;
41229;SDS011;26964;50.428;19.218;2024-03-06T02:35:07;147.9;;;26.1;;
41229;SDS011;26964;50.428;19.218;2024-03-06T02:36:07;146.2;;;25.9;;
41229;SDS011;26964;50.428;19.218;2024-03-06T02:37:07;131.1;;;26.2;;
41229;SDS011;26964;50.428;19.218;2024-03-06T02:38:07;156.4;;;27.9;;
41229;SDS011;26964;50.428;19.218;2024-03-06T02:39:07;106.6;;;25.5;;
41229;SDS011;26964;50.428;19.218;2024-03-06T02:40:08;176.5;;;27.9;;
41229;SDS011;26964;50.428;19.218;2024-03-06T02:41:12;137.0;;;26.1;;
41229;SDS011;26964;50.428;19.218;2024-03-06T02:42:08;142.5;;;27.2;;
41229;SDS011;26964;50.428;19.218;2024-03-06T02:43:07;131.3;;;25.8;;
41229;SDS011;26964;50.428;19.218;2024-03-06T02:44:07;119.7;;;27.6;;
41229;SDS011;26964;50.428;19.218;2024-03-06T02:45:11;162.9;;;27.7;;
41229;SDS011;26964;50.428;19.218;2024-03-06T02:46:07;136.0;;;26.2;;
41229;SDS011;26964;50.428;19.218;2024-03-06T02:47:07;126.0;;;25.9;;
41229;SDS011;26964;50.428;19.218;2024-03-06T02:48:08;134.3;;;26.3;;
41229;SDS011;26964;50.428;19.218;2024-03-06T02:49:06;149.3;;;27.5;;
41229;SDS011;26964;50.428;19.218;2024-03-06T02:50:10;93.3;;;25.2;;
41229;SDS011;26964;50.428;19.218;2024-03-06T02:51:11;69.6;;;24.5;;
41229;SDS011;26964;50.428;19.218;2024-03-06T02:52:07;103.6;;;26.0;;
41229;SDS011;26964;50.428;19.218;2024-03-06T02:53:07;114.3;;;27.8;;
41229;SDS011;26964;50.428;19.218;2024-03-06T02:54:07;129.5;;;28.0;;
41229;SDS011;26964;50.428;19.218;2024-03-06T02:55:07;101.5;;;26.6;;
41229;SDS011;26964;50.428;19.218;2024-03-06T02:56:07;120.2;;;26.5;;
41229;SDS011;26964;50.428;19.218;2024-03-06T02:57:06;105.2;;;27.2;;
41229;SDS011;26964;50.428;19.218;2024-03-06T02:58:06;67.9;;;26.7;;
41229;SDS011;26964;50.428;19.218;2024-03-06T02:59:06;67.0;;;26.7;;
41229;SDS011;26964;50.428;19.218;2024-03-06T03:00:06;71.7;;;27.8;;
41229;SDS011;26964;50.428;19.218;2024-03-06T03:01:07;96.9;;;27.7;;
41229;SDS011;26964;50.428;19.218;2024-03-06T03:02:06;116.9;;;27.7;;
41229;SDS011;26964;50.428;19.218;2024-03-06T03:03:07;99.0;;;28.8;;
41229;SDS011;26964;50.428;19.218;2024-03-06T03:04:07;120.6;;;29.3;;
41229;SDS011;26964;50.428;19.218;2024-03-06T03:05:07;153.3;;;28.8;;
41229;SDS011;26964;50.428;19.218;2024-03-06T03:06:07;115.6;;;29.0;;
41229;SDS011;26964;50.428;19.218;2024-03-06T03:07:07;130.0;;;27.6;;
41229;SDS011;26964;50.428;19.218;2024-03-06T03:08:07;121.1;;;30.4;;
41229;SDS011;26964;50.428;19.218;2024-03-06T03:09:07;119.6;;;28.1;;
41229;SDS011;26964;50.428;19.218;2024-03-06T03:10:09;111.7;;;27.0;;
41229;SDS011;26964;50.428;19.218;2024-03-06T03:11:07;125.3;;;31.0;;
41229;SDS011;26964;50.428;19.218;2024-03-06T03:12:07;144.5;;;30.4;;
41229;SDS011;26964;50.428;19.218;2024-03-06T03:13:07;141.8;;;30.1;;
41229;SDS011;26964;50.428;19.218;2024-03-06T03:14:07;120.1;;;28.8;;
41229;SDS011;26964;50.428;19.218;2024-03-06T03:15:06;107.4;;;27.3;;
41229;SDS011;26964;50.428;19.218;2024-03-06T03:16:07;89.7;;;26.7;;
41229;SDS011;26964;50.428;19.218;2024-03-06T03:17:07;108.4;;;27.1;;
41229;SDS011;26964;50.428;19.218;2024-03-06T03:18:06;111.1;;;28.9;;
41229;SDS011;26964;50.428;19.218;2024-03-06T03:19:06;90.2;;;28.1;;
41229;SDS011;26964;50.428;19.218;2024-03-06T03:20:06;81.7;;;26.5;;
41229;SDS011;26964;50.428;19.218;2024-03-06T03:21:08;84.3;;;26.3;;
41229;SDS011;26964;50.428;19.218;2024-03-06T03:22:06;104.1;;;28.3;;
41229;SDS011;26964;50.428;19.218;2024-03-06T03:23:06;95.4;;;26.7;;
41229;SDS011;26964;50.428;19.218;2024-03-06T03:24:06;73.1;;;26.4;;
41229;SDS011;26964;50.428;19.218;2024-03-06T03:25:07;77.5;;;27.5;;
41229;SDS011;26964;50.428;19.218;2024-03-06T03:26:06;71.1;;;26.7;;
41229;SDS011;26964;50.428;19.218;2024-03-06T03:27:06;72.2;;;27.0;;
41229;SDS011;26964;50.428;19.218;2024-03-06T03:28:06;71.7;;;26.1;;
41229;SDS011;26964;50.428;19.218;2024-03-06T03:29:06;93.5;;;27.3;;
41229;SDS011;26964;50.428;19.218;2024-03-06T03:30:07;83.6;;;27.6;;
41229;SDS011;26964;50.428;19.218;2024-03-06T03:31:06;61.1;;;26.0;;
41229;SDS011;26964;50.428;19.218;2024-03-06T03:32:06;90.1;;;26.5;;
41229;SDS011;26964;50.428;19.218;2024-03-06T03:33:08;65.1;;;26.0;;
41229;SDS011;26964;50.428;19.218;2024-03-06T03:34:06;70.1;;;26.7;;
41229;SDS011;26964;50.428;19.218;2024-03-06T03:35:07;65.6;;;26.3;;
41229;SDS011;26964;50.428;19.218;2024-03-06T03:36:07;60.7;;;26.1;;
41229;SDS011;26964;50.428;19.218;2024-03-06T03:37:06;57.4;;;26.2;;
41229;SDS011;26964;50.428;19.218;2024-03-06T03:38:06;53.2;;;25.8;;
41229;SDS011;26964;50.428;19.218;2024-03-06T03:39:06;60.7;;;26.8;;
41229;SDS011;26964;50.428;19.218;2024-03-06T03:40:06;64.6;;;26.6;;
41229;SDS011;26964;50.428;19.218;2024-03-06T03:41:07;77.2;;;27.9;;
41229;SDS011;26964;50.428;19.218;2024-03-06T03:42:07;54.5;;;26.7;;
41229;SDS011;26964;50.428;19.218;2024-03-06T03:43:06;59.4;;;27.0;;
41229;SDS011;26964;50.428;19.218;2024-03-06T03:45:06;46.8;;;25.8;;
41229;SDS011;26964;50.428;19.218;2024-03-06T03:46:06;54.7;;;27.2;;
41229;SDS011;26964;50.428;19.218;2024-03-06T03:47:06;54.4;;;27.8;;
41229;SDS011;26964;50.428;19.218;2024-03-06T03:48:06;62.5;;;29.5;;
41229;SDS011;26964;50.428;19.218;2024-03-06T03:49:06;46.5;;;27.4;;
41229;SDS011;26964;50.428;19.218;2024-03-06T03:50:06;61.3;;;28.3;;
41229;SDS011;26964;50.428;19.218;2024-03-06T03:51:06;68.0;;;27.8;;
41229;SDS011;26964;50.428;19.218;2024-03-06T03:52:06;71.5;;;28.1;;
41229;SDS011;26964;50.428;19.218;2024-03-06T03:53:06;67.0;;;26.0;;
41229;SDS011;26964;50.428;19.218;2024-03-06T03:54:06;74.3;;;24.8;;
41229;SDS011;26964;50.428;19.218;2024-03-06T03:56:06;57.3;;;25.8;;
41229;SDS011;26964;50.428;19.218;2024-03-06T03:57:06;54.7;;;26.1;;
41229;SDS011;26964;50.428;19.218;2024-03-06T03:58:06;52.6;;;25.5;;
41229;SDS011;26964;50.428;19.218;2024-03-06T03:59:06;56.9;;;30.4;;
41229;SDS011;26964;50.428;19.218;2024-03-06T04:00:06;60.1;;;28.1;;
41229;SDS011;26964;50.428;19.218;2024-03-06T04:01:06;59.1;;;31.4;;
41229;SDS011;26964;50.428;19.218;2024-03-06T04:02:06;67.7;;;28.8;;
41229;SDS011;26964;50.428;19.218;2024-03-06T04:03:06;59.4;;;26.2;;
41229;SDS011;26964;50.428;19.218;2024-03-06T04:04:06;70.0;;;28.1;;
41229;SDS011;26964;50.428;19.218;2024-03-06T04:05:06;82.0;;;26.5;;
41229;SDS011;26964;50.428;19.218;2024-03-06T04:07:06;69.4;;;26.9;;
41229;SDS011;26964;50.428;19.218;2024-03-06T04:08:06;63.9;;;26.9;;
41229;SDS011;26964;50.428;19.218;2024-03-06T04:09:06;69.0;;;27.4;;
41229;SDS011;26964;50.428;19.218;2024-03-06T04:10:06;74.9;;;28.5;;
41229;SDS011;26964;50.428;19.218;2024-03-06T04:11:08;68.7;;;28.2;;
41229;SDS011;26964;50.428;19.218;2024-03-06T04:12:06;61.0;;;31.3;;
41229;SDS011;26964;50.428;19.218;2024-03-06T04:13:06;64.3;;;28.3;;
41229;SDS011;26964;50.428;19.218;2024-03-06T04:14:06;71.3;;;28.0;;
41229;SDS011;26964;50.428;19.218;2024-03-06T04:15:06;55.4;;;27.9;;
41229;SDS011;26964;50.428;19.218;2024-03-06T04:16:06;69.3;;;28.9;;
41229;SDS011;26964;50.428;19.218;2024-03-06T04:17:06;62.5;;;29.8;;
41229;SDS011;26964;50.428;19.218;2024-03-06T04:18:06;65.0;;;28.2;;
41229;SDS011;26964;50.428;19.218;2024-03-06T04:19:06;52.0;;;29.0;;
41229;SDS011;26964;50.428;19.218;2024-03-06T04:20:06;68.6;;;30.0;;
41229;SDS011;26964;50.428;19.218;2024-03-06T04:21:06;67.4;;;30.4;;
41229;SDS011;26964;50.428;19.218;2024-03-06T04:22:06;60.5;;;29.8;;
41229;SDS011;26964;50.428;19.218;2024-03-06T04:23:06;57.7;;;27.6;;
41229;SDS011;26964;50.428;19.218;2024-03-06T04:24:06;62.4;;;29.4;;
41229;SDS011;26964;50.428;19.218;2024-03-06T04:25:06;57.7;;;27.6;;
41229;SDS011;26964;50.428;19.218;2024-03-06T04:26:06;61.5;;;28.2;;
41229;SDS011;26964;50.428;19.218;2024-03-06T04:27:06;61.3;;;28.3;;
41229;SDS011;26964;50.428;19.218;2024-03-06T04:28:06;60.6;;;29.6;;
41229;SDS011;26964;50.428;19.218;2024-03-06T04:29:06;57.8;;;27.7;;
41229;SDS011;26964;50.428;19.218;2024-03-06T04:30:06;63.4;;;27.7;;
41229;SDS011;26964;50.428;19.218;2024-03-06T04:31:06;68.6;;;27.6;;
41229;SDS011;26964;50.428;19.218;2024-03-06T04:32:06;66.2;;;27.8;;
41229;SDS011;26964;50.428;19.218;2024-03-06T04:33:06;61.7;;;27.8;;
41229;SDS011;26964;50.428;19.218;2024-03-06T04:34:06;61.9;;;26.7;;
41229;SDS011;26964;50.428;19.218;2024-03-06T04:35:06;73.1;;;28.3;;
41229;SDS011;26964;50.428;19.218;2024-03-06T04:36:06;65.9;;;28.6;;
41229;SDS011;26964;50.428;19.218;2024-03-06T04:37:06;65.8;;;29.2;;
41229;SDS011;26964;50.428;19.218;2024-03-06T04:38:06;70.5;;;28.0;;
41229;SDS011;26964;50.428;19.218;2024-03-06T04:39:06;74.6;;;28.0;;
41229;SDS011;26964;50.428;19.218;2024-03-06T04:40:06;61.1;;;28.6;;
41229;SDS011;26964;50.428;19.218;2024-03-06T04:41:06;63.1;;;29.0;;
41229;SDS011;26964;50.428;19.218;2024-03-06T04:42:06;64.0;;;27.3;;
41229;SDS011;26964;50.428;19.218;2024-03-06T04:43:06;65.1;;;27.1;;
41229;SDS011;26964;50.428;19.218;2024-03-06T04:44:08;62.7;;;29.9;;
41229;SDS011;26964;50.428;19.218;2024-03-06T04:46:06;67.2;;;30.7;;
41229;SDS011;26964;50.428;19.218;2024-03-06T04:47:06;68.9;;;28.4;;
41229;SDS011;26964;50.428;19.218;2024-03-06T04:48:06;73.8;;;30.2;;
41229;SDS011;26964;50.428;19.218;2024-03-06T04:49:06;64.3;;;30.3;;
41229;SDS011;26964;50.428;19.218;2024-03-06T04:50:08;56.4;;;28.9;;
41229;SDS011;26964;50.428;19.218;2024-03-06T04:51:06;64.2;;;28.5;;
41229;SDS011;26964;50.428;19.218;2024-03-06T04:52:06;61.1;;;28.2;;
41229;SDS011;26964;50.428;19.218;2024-03-06T04:53:06;66.5;;;30.0;;
41229;SDS011;26964;50.428;19.218;2024-03-06T04:54:06;55.8;;;28.0;;
41229;SDS011;26964;50.428;19.218;2024-03-06T04:55:06;73.5;;;30.0;;
41229;SDS011;26964;50.428;19.218;2024-03-06T04:56:06;65.6;;;29.5;;
41229;SDS011;26964;50.428;19.218;2024-03-06T04:57:06;67.0;;;28.7;;
41229;SDS011;26964;50.428;19.218;2024-03-06T04:58:06;61.3;;;30.1;;
41229;SDS011;26964;50.428;19.218;2024-03-06T04:59:06;51.3;;;28.8;;
41229;SDS011;26964;50.428;19.218;2024-03-06T05:00:06;61.6;;;29.8;;
41229;SDS011;26964;50.428;19.218;2024-03-06T05:01:06;68.7;;;30.2;;
41229;SDS011;26964;50.428;19.218;2024-03-06T05:02:06;65.8;;;30.5;;
41229;SDS011;26964;50.428;19.218;2024-03-06T05:03:06;61.7;;;29.7;;
41229;SDS011;26964;50.428;19.218;2024-03-06T05:04:06;58.9;;;28.9;;
41229;SDS011;26964;50.428;19.218;2024-03-06T05:05:06;58.8;;;29.6;;
41229;SDS011;26964;50.428;19.218;2024-03-06T05:06:06;62.0;;;29.1;;
41229;SDS011;26964;50.428;19.218;2024-03-06T05:07:06;58.8;;;29.4;;
41229;SDS011;26964;50.428;19.218;2024-03-06T05:08:06;57.7;;;29.1;;
41229;SDS011;26964;50.428;19.218;2024-03-06T05:09:06;60.9;;;31.2;;
41229;SDS011;26964;50.428;19.218;2024-03-06T05:10:06;60.6;;;28.2;;
41229;SDS011;26964;50.428;19.218;2024-03-06T05:11:06;62.1;;;27.5;;
41229;SDS011;26964;50.428;19.218;2024-03-06T05:12:06;53.9;;;28.3;;
41229;SDS011;26964;50.428;19.218;2024-03-06T05:13:08;65.0;;;29.8;;
41229;SDS011;26964;50.428;19.218;2024-03-06T05:14:06;60.6;;;29.6;;
41229;SDS011;26964;50.428;19.218;2024-03-06T05:15:06;66.8;;;29.3;;
41229;SDS011;26964;50.428;19.218;2024-03-06T05:16:06;70.6;;;27.4;;
41229;SDS011;26964;50.428;19.218;2024-03-06T05:17:06;63.1;;;29.5;;
41229;SDS011;26964;50.428;19.218;2024-03-06T05:18:06;59.4;;;28.6;;
41229;SDS011;26964;50.428;19.218;2024-03-06T05:19:06;60.9;;;30.7;;
41229;SDS011;26964;50.428;19.218;2024-03-06T05:20:06;61.1;;;28.4;;
41229;SDS011;26964;50.428;19.218;2024-03-06T05:21:06;53.3;;;28.7;;
41229;SDS011;26964;50.428;19.218;2024-03-06T05:22:06;59.3;;;27.9;;
41229;SDS011;26964;50.428;19.218;2024-03-06T05:23:06;59.9;;;28.9;;
41229;SDS011;26964;50.428;19.218;2024-03-06T05:24:06;59.5;;;30.7;;
41229;SDS011;26964;50.428;19.218;2024-03-06T05:25:06;64.3;;;29.2;;
41229;SDS011;26964;50.428;19.218;2024-03-06T05:26:06;60.0;;;28.3;;
41229;SDS011;26964;50.428;19.218;2024-03-06T05:27:06;59.8;;;27.6;;
41229;SDS011;26964;50.428;19.218;2024-03-06T05:28:06;55.0;;;27.9;;
41229;SDS011;26964;50.428;19.218;2024-03-06T05:29:06;55.9;;;28.6;;
41229;SDS011;26964;50.428;19.218;2024-03-06T05:30:06;65.9;;;28.4;;
41229;SDS011;26964;50.428;19.218;2024-03-06T05:31:15;67.3;;;29.3;;
41229;SDS011;26964;50.428;19.218;2024-03-06T05:32:06;69.4;;;28.7;;
41229;SDS011;26964;50.428;19.218;2024-03-06T05:33:06;62.3;;;27.7;;
41229;SDS011;26964;50.428;19.218;2024-03-06T05:34:06;57.0;;;28.6;;
41229;SDS011;26964;50.428;19.218;2024-03-06T05:35:06;69.5;;;27.7;;
41229;SDS011;26964;50.428;19.218;2024-03-06T05:36:06;66.8;;;29.5;;
41229;SDS011;26964;50.428;19.218;2024-03-06T05:37:06;69.0;;;29.5;;
41229;SDS011;26964;50.428;19.218;2024-03-06T05:38:06;61.1;;;28.0;;
41229;SDS011;26964;50.428;19.218;2024-03-06T05:39:06;57.0;;;29.6;;
41229;SDS011;26964;50.428;19.218;2024-03-06T05:40:06;64.3;;;28.4;;
41229;SDS011;26964;50.428;19.218;2024-03-06T05:41:06;62.2;;;29.3;;
41229;SDS011;26964;50.428;19.218;2024-03-06T05:42:06;69.7;;;30.2;;
41229;SDS011;26964;50.428;19.218;2024-03-06T05:43:08;63.5;;;29.6;;
41229;SDS011;26964;50.428;19.218;2024-03-06T05:44:06;76.0;;;30.2;;
41229;SDS011;26964;50.428;19.218;2024-03-06T05:45:06;69.8;;;28.0;;
41229;SDS011;26964;50.428;19.218;2024-03-06T05:46:06;71.3;;;28.0;;
41229;SDS011;26964;50.428;19.218;2024-03-06T05:47:06;61.5;;;29.2;;
41229;SDS011;26964;50.428;19.218;2024-03-06T05:48:06;69.1;;;29.2;;
41229;SDS011;26964;50.428;19.218;2024-03-06T05:49:06;63.5;;;28.1;;
41229;SDS011;26964;50.428;19.218;2024-03-06T05:50:06;65.4;;;29.2;;
41229;SDS011;26964;50.428;19.218;2024-03-06T05:51:06;59.1;;;28.6;;
41229;SDS011;26964;50.428;19.218;2024-03-06T05:52:06;70.2;;;30.3;;
41229;SDS011;26964;50.428;19.218;2024-03-06T05:53:06;62.1;;;28.7;;
41229;SDS011;26964;50.428;19.218;2024-03-06T05:54:06;68.8;;;30.0;;
41229;SDS011;26964;50.428;19.218;2024-03-06T05:55:06;78.9;;;28.9;;
41229;SDS011;26964;50.428;19.218;2024-03-06T05:56:06;58.7;;;29.6;;
41229;SDS011;26964;50.428;19.218;2024-03-06T05:57:06;65.0;;;30.1;;
41229;SDS011;26964;50.428;19.218;2024-03-06T05:58:06;64.6;;;30.2;;
41229;SDS011;26964;50.428;19.218;2024-03-06T05:59:06;60.2;;;30.0;;